createdAt,value
2018-08-09T00:01:04.461Z,95571.02
2018-08-09T00:03:33.648Z,95571.54
2018-08-09T00:06:02.833Z,95575.16
2018-08-09T00:08:32.422Z,95576.09
2018-08-09T00:11:01.590Z,95575.53
2018-08-09T00:13:30.809Z,95573.58
2018-08-09T00:15:59.977Z,95570.60
2018-08-09T00:18:29.337Z,95560.98
2018-08-09T00:20:58.508Z,95562.68
2018-08-09T00:23:27.683Z,95564.87
2018-08-09T00:25:56.841Z,95560.05
2018-08-09T00:28:26.049Z,95566.34
2018-08-09T00:30:55.212Z,95567.13
2018-08-09T00:33:24.384Z,95560.18
2018-08-09T00:35:53.540Z,95555.63
2018-08-09T00:38:22.729Z,95549.33
2018-08-09T00:40:51.907Z,95540.05
2018-08-09T00:43:21.085Z,95534.27
2018-08-09T00:45:50.285Z,95538.22
2018-08-09T00:48:19.477Z,95547.67
2018-08-09T00:50:48.721Z,95544.31
2018-08-09T00:53:17.872Z,95548.27
2018-08-09T00:55:53.657Z,95543.78
2018-08-09T00:58:22.837Z,95536.66
2018-08-09T01:00:52.053Z,95529.04
2018-08-09T01:03:21.204Z,95519.05
2018-08-09T01:05:50.389Z,95518.73
2018-08-09T01:08:19.540Z,95522.62
2018-08-09T01:10:48.766Z,95525.42
2018-08-09T01:13:17.945Z,95530.56
2018-08-09T01:15:47.127Z,95528.23
2018-08-09T01:18:16.312Z,95530.60
2018-08-09T01:20:45.497Z,95534.09
2018-08-09T01:23:14.750Z,95533.48
2018-08-09T01:25:43.920Z,95529.97
2018-08-09T01:28:13.109Z,95529.97
2018-08-09T01:30:45.288Z,95521.97
2018-08-09T01:33:14.484Z,95517.16
2018-08-09T01:35:43.677Z,95509.22
2018-08-09T01:38:12.877Z,95518.05
2018-08-09T01:40:42.061Z,95507.67
2018-08-09T01:43:28.357Z,95513.75
2018-08-09T01:45:57.536Z,95505.76
2018-08-09T01:48:26.756Z,95512.09
2018-08-09T01:50:55.921Z,95513.64
2018-08-09T01:53:25.097Z,95514.47
2018-08-09T01:55:54.272Z,95515.36
2018-08-09T01:58:23.449Z,95515.45
2018-08-09T02:00:52.633Z,95520.13
2018-08-09T02:03:21.789Z,95517.36
2018-08-09T02:05:50.962Z,95520.28
2018-08-09T02:08:20.121Z,95512.89
2018-08-09T02:10:49.289Z,95514.25
2018-08-09T02:13:18.450Z,95518.83
2018-08-09T02:15:50.660Z,95515.89
2018-08-09T02:18:19.825Z,95520.33
2018-08-09T02:20:49.053Z,95515.44
2018-08-09T02:23:18.206Z,95515.99
2018-08-09T02:25:47.392Z,95516.47
2018-08-09T02:28:16.569Z,95521.69
2018-08-09T02:30:45.717Z,95519.97
2018-08-09T02:33:15.101Z,95511.50
2018-08-09T02:35:44.344Z,95513.66
2018-08-09T02:38:13.588Z,95517.66
2018-08-09T02:40:42.771Z,95519.72
2018-08-09T02:43:11.931Z,95516.66
2018-08-09T02:45:41.104Z,95514.98
2018-08-09T02:48:10.257Z,95514.86
2018-08-09T02:50:39.444Z,95513.25
2018-08-09T02:53:08.605Z,95509.64
2018-08-09T02:55:37.790Z,95509.89
2018-08-09T02:58:07.197Z,95509.80
2018-08-09T03:00:36.401Z,95506.20
2018-08-09T03:03:05.873Z,95501.64
2018-08-09T03:05:35.045Z,95493.39
2018-08-09T03:08:04.236Z,95499.02
2018-08-09T03:10:33.406Z,95497.25
2018-08-09T03:13:02.630Z,95499.23
2018-08-09T03:15:31.797Z,95491.98
2018-08-09T03:18:00.981Z,95488.16
2018-08-09T03:20:30.165Z,95486.14
2018-08-09T03:22:59.452Z,95485.19
2018-08-09T03:25:28.681Z,95481.27
2018-08-09T03:27:57.857Z,95486.40
2018-08-09T03:30:27.038Z,95483.36
2018-08-09T03:32:56.217Z,95479.27
2018-08-09T03:35:25.381Z,95476.33
2018-08-09T03:37:54.547Z,95476.07
2018-08-09T03:40:23.721Z,95473.10
2018-08-09T03:42:52.906Z,95477.77
2018-08-09T03:45:22.063Z,95479.42
2018-08-09T03:47:51.261Z,95477.43
2018-08-09T03:50:20.417Z,95479.20
2018-08-09T03:52:49.618Z,95481.25
2018-08-09T03:55:18.796Z,95482.55
2018-08-09T03:57:47.980Z,95482.00
2018-08-09T04:00:17.144Z,95489.42
2018-08-09T04:02:46.331Z,95483.44
2018-08-09T04:05:15.507Z,95487.98
2018-08-09T04:07:44.725Z,95488.09
2018-08-09T04:10:13.901Z,95491.44
2018-08-09T04:12:43.103Z,95495.59
2018-08-09T04:15:12.674Z,95498.16
2018-08-09T04:17:41.833Z,95502.23
2018-08-09T04:20:11.009Z,95501.90
2018-08-09T04:22:40.189Z,95502.23
2018-08-09T04:25:09.641Z,95505.17
2018-08-09T04:27:38.805Z,95502.30
2018-08-09T04:30:08.021Z,95502.78
2018-08-09T04:32:37.200Z,95499.91
2018-08-09T04:35:06.364Z,95499.11
2018-08-09T04:37:35.590Z,95506.13
2018-08-09T04:40:04.777Z,95513.72
2018-08-09T04:42:33.937Z,95513.57
2018-08-09T04:45:03.104Z,95508.29
2018-08-09T04:47:32.269Z,95507.19
2018-08-09T04:50:01.460Z,95511.08
2018-08-09T04:52:30.624Z,95504.95
2018-08-09T04:54:59.781Z,95509.65
2018-08-09T04:57:28.982Z,95514.13
2018-08-09T04:59:58.164Z,95511.41
2018-08-09T05:02:27.341Z,95514.20
2018-08-09T05:04:56.506Z,95510.30
2018-08-09T05:07:25.665Z,95519.16
2018-08-09T05:09:54.921Z,95522.60
2018-08-09T05:12:24.102Z,95519.48
2018-08-09T05:14:53.245Z,95528.19
2018-08-09T05:17:22.473Z,95531.45
2018-08-09T05:19:51.671Z,95530.75
2018-08-09T05:22:20.825Z,95529.55
2018-08-09T05:24:50.005Z,95531.71
2018-08-09T05:27:19.513Z,95528.66
2018-08-09T05:29:48.740Z,95534.91
2018-08-09T05:32:17.908Z,95529.07
2018-08-09T05:34:47.617Z,95529.14
2018-08-09T05:37:17.007Z,95526.13
2018-08-09T05:39:46.198Z,95521.32
2018-08-09T05:42:15.374Z,95518.68
2018-08-09T05:44:44.812Z,95520.98
2018-08-09T05:47:13.982Z,95525.55
2018-08-09T05:49:43.141Z,95523.56
2018-08-09T05:52:12.365Z,95523.16
2018-08-09T05:54:41.513Z,95522.02
2018-08-09T05:57:10.691Z,95525.13
2018-08-09T05:59:39.872Z,95529.80
2018-08-09T06:02:09.077Z,95523.62
2018-08-09T06:04:38.523Z,95533.16
2018-08-09T06:07:07.705Z,95527.56
2018-08-09T06:09:36.913Z,95533.55
2018-08-09T06:12:06.100Z,95528.50
2018-08-09T06:14:35.272Z,95535.42
2018-08-09T06:17:04.441Z,95536.03
2018-08-09T06:19:33.592Z,95539.17
2018-08-09T06:22:02.981Z,95536.29
2018-08-09T06:24:32.148Z,95541.56
2018-08-09T06:27:01.468Z,95541.09
2018-08-09T06:29:30.637Z,95537.84
2018-08-09T06:31:59.809Z,95543.93
2018-08-09T06:34:28.986Z,95542.31
2018-08-09T06:36:58.165Z,95541.02
2018-08-09T06:39:27.345Z,95547.79
2018-08-09T06:41:56.536Z,95551.31
2018-08-09T06:44:25.717Z,95548.45
2018-08-09T06:46:54.888Z,95550.34
2018-08-09T06:49:24.048Z,95544.86
2018-08-09T06:51:53.225Z,95545.77
2018-08-09T06:54:22.397Z,95547.13
2018-08-09T06:56:51.555Z,95540.36
2018-08-09T06:59:20.729Z,95539.71
2018-08-09T07:01:49.893Z,95536.77
2018-08-09T07:04:19.060Z,95535.23
2018-08-09T07:06:48.237Z,95528.76
2018-08-09T07:09:17.401Z,95531.03
2018-08-09T07:11:46.658Z,95524.55
2018-08-09T07:14:15.812Z,95518.82
2018-08-09T07:16:45.325Z,95525.66
2018-08-09T07:19:14.500Z,95526.95
2018-08-09T07:21:43.662Z,95526.07
2018-08-09T07:24:12.849Z,95523.27
2018-08-09T07:26:42.029Z,95526.72
2018-08-09T07:29:11.245Z,95519.16
2018-08-09T07:31:46.773Z,95514.53
2018-08-09T07:34:16.264Z,95516.60
2018-08-09T07:36:45.431Z,95514.13
2018-08-09T07:39:14.603Z,95515.74
2018-08-09T07:41:43.797Z,95514.38
2018-08-09T07:44:12.964Z,95517.73
2018-08-09T07:46:42.116Z,95508.61
2018-08-09T07:49:11.300Z,95507.48
2018-08-09T07:51:40.471Z,95507.13
2018-08-09T07:54:09.637Z,95502.55
2018-08-09T07:56:38.809Z,95502.67
2018-08-09T07:59:08.021Z,95501.98
2018-08-09T08:01:37.205Z,95501.08
2018-08-09T08:04:06.377Z,95495.92
2018-08-09T08:06:35.558Z,95496.88
2018-08-09T08:09:08.141Z,95495.11
2018-08-09T08:11:37.306Z,95500.25
2018-08-09T08:14:06.590Z,95492.58
2018-08-09T08:16:35.746Z,95488.64
2018-08-09T08:19:05.201Z,95485.91
2018-08-09T08:21:34.373Z,95493.34
2018-08-09T08:24:03.574Z,95491.45
2018-08-09T08:26:32.910Z,95489.48
2018-08-09T08:29:02.057Z,95484.92
2018-08-09T08:31:31.246Z,95489.25
2018-08-09T08:34:00.514Z,95487.45
2018-08-09T08:36:29.697Z,95477.19
2018-08-09T08:38:59.185Z,95481.66
2018-08-09T08:41:28.427Z,95469.31
2018-08-09T08:43:57.517Z,95465.50
2018-08-09T08:46:26.709Z,95465.05
2018-08-09T08:48:56.182Z,95458.94
2018-08-09T08:51:25.363Z,95463.97
2018-08-09T08:53:54.527Z,95452.13
2018-08-09T08:56:24.314Z,95461.61
2018-08-09T08:58:53.668Z,95457.84
2018-08-09T09:01:22.828Z,95463.85
2018-08-09T09:03:53.006Z,95453.30
2018-08-09T09:06:22.183Z,95448.05
2018-08-09T09:08:51.387Z,95445.58
2018-08-09T09:11:20.549Z,95434.92
2018-08-09T09:13:50.557Z,95427.41
2018-08-09T09:16:19.693Z,95433.66
2018-08-09T09:18:49.190Z,95426.95
2018-08-09T09:21:18.345Z,95433.84
2018-08-09T09:23:47.501Z,95420.26
2018-08-09T09:26:17.316Z,95414.45
2018-08-09T09:28:46.495Z,95416.48
2018-08-09T09:31:15.634Z,95415.79
2018-08-09T09:33:44.965Z,95418.63
2018-08-09T09:36:14.162Z,95418.44
2018-08-09T09:38:43.321Z,95418.00
2018-08-09T09:41:12.485Z,95416.12
2018-08-09T09:43:41.637Z,95415.98
2018-08-09T09:46:10.797Z,95425.90
2018-08-09T09:48:40.400Z,95424.55
2018-08-09T09:51:09.577Z,95419.32
2018-08-09T09:53:38.733Z,95418.13
2018-08-09T09:56:07.907Z,95419.13
2018-08-09T09:58:37.080Z,95419.76
2018-08-09T10:01:11.545Z,95414.23
2018-08-09T10:03:40.892Z,95410.02
2018-08-09T10:06:10.112Z,95410.02
2018-08-09T10:08:39.319Z,95401.00
2018-08-09T10:11:08.857Z,95402.02
2018-08-09T10:13:38.061Z,95403.72
2018-08-09T10:16:07.213Z,95403.53
2018-08-09T10:18:36.704Z,95398.20
2018-08-09T10:21:05.917Z,95393.23
2018-08-09T10:23:35.078Z,95386.00
2018-08-09T10:26:04.249Z,95390.02
2018-08-09T10:28:33.425Z,95387.05
2018-08-09T10:31:03.637Z,95385.61
2018-08-09T10:33:32.838Z,95378.18
2018-08-09T10:36:02.039Z,95372.05
2018-08-09T10:38:31.208Z,95371.12
2018-08-09T10:41:00.410Z,95363.87
2018-08-09T10:43:29.568Z,95379.74
2018-08-09T10:45:58.776Z,95370.41
2018-08-09T10:48:27.941Z,95359.37
2018-08-09T10:50:57.118Z,95362.56
2018-08-09T10:53:26.301Z,95358.28
2018-08-09T10:55:55.517Z,95357.98
2018-08-09T10:58:31.274Z,95356.36
2018-08-09T11:01:00.471Z,95354.79
2018-08-09T11:03:29.674Z,95350.65
2018-08-09T11:05:58.845Z,95343.37
2018-08-09T11:08:28.258Z,95335.53
2018-08-09T11:10:57.436Z,95338.70
2018-08-09T11:13:26.622Z,95336.37
2018-08-09T11:15:55.813Z,95333.00
2018-08-09T11:18:25.333Z,95319.59
2018-08-09T11:20:54.513Z,95327.11
2018-08-09T11:23:23.674Z,95319.00
2018-08-09T11:25:52.842Z,95316.62
2018-08-09T11:28:22.046Z,95318.77
2018-08-09T11:30:51.189Z,95321.34
2018-08-09T11:33:20.386Z,95316.19
2018-08-09T11:35:49.560Z,95314.98
2018-08-09T11:38:18.725Z,95316.96
2018-08-09T11:40:47.897Z,95310.20
2018-08-09T11:43:17.077Z,95317.11
2018-08-09T11:45:46.385Z,95315.73
2018-08-09T11:48:15.701Z,95311.95
2018-08-09T11:50:45.122Z,95310.34
2018-08-09T11:53:14.522Z,95312.91
2018-08-09T11:55:43.685Z,95312.89
2018-08-09T11:58:12.869Z,95312.50
2018-08-09T12:00:42.430Z,95298.48
2018-08-09T12:03:11.636Z,95306.13
2018-08-09T12:05:40.780Z,95298.84
2018-08-09T12:08:09.974Z,95301.69
2018-08-09T12:10:39.161Z,95295.58
2018-08-09T12:13:08.383Z,95288.00
2018-08-09T12:15:37.549Z,95292.90
2018-08-09T12:18:06.825Z,95289.13
2018-08-09T12:20:36.329Z,95283.18
2018-08-09T12:23:05.542Z,95283.59
2018-08-09T12:25:34.717Z,95287.95
2018-08-09T12:28:03.882Z,95288.34
2018-08-09T12:30:33.073Z,95270.59
2018-08-09T12:33:02.281Z,95273.25
2018-08-09T12:35:31.466Z,95269.34
2018-08-09T12:38:00.670Z,95264.45
2018-08-09T12:40:30.173Z,95262.23
2018-08-09T12:42:59.341Z,95255.63
2018-08-09T12:45:28.616Z,95253.72
2018-08-09T12:47:58.079Z,95249.07
2018-08-09T12:50:27.240Z,95244.02
2018-08-09T12:52:56.409Z,95240.77
2018-08-09T12:55:25.584Z,95244.34
2018-08-09T12:57:54.796Z,95240.49
2018-08-09T13:00:23.955Z,95233.89
2018-08-09T13:02:53.149Z,95241.43
2018-08-09T13:05:22.359Z,95234.41
2018-08-09T13:07:51.534Z,95237.91
2018-08-09T13:10:20.690Z,95235.84
2018-08-09T13:12:49.849Z,95229.45
2018-08-09T13:15:19.070Z,95231.75
2018-08-09T13:17:48.233Z,95223.98
2018-08-09T13:20:19.417Z,95224.52
2018-08-09T13:22:49.689Z,95224.41
2018-08-09T13:25:19.316Z,95218.64
2018-08-09T13:27:48.976Z,95221.98
2018-08-09T13:30:18.200Z,95222.81
2018-08-09T13:32:47.338Z,95225.54
2018-08-09T13:35:16.490Z,95222.80
2018-08-09T13:37:45.662Z,95219.80
2018-08-09T13:40:14.842Z,95208.97
2018-08-09T13:42:44.408Z,95202.67
2018-08-09T13:45:16.586Z,95208.34
2018-08-09T13:47:45.752Z,95199.56
2018-08-09T13:50:14.926Z,95199.09
2018-08-09T13:52:44.550Z,95199.33
2018-08-09T13:55:15.301Z,95202.38
2018-08-09T13:57:44.811Z,95205.61
2018-08-09T14:00:15.049Z,95199.14
2018-08-09T14:02:45.500Z,95199.55
2018-08-09T14:05:14.690Z,95199.94
2018-08-09T14:07:44.383Z,95195.05
2018-08-09T14:10:13.783Z,95188.94
2018-08-09T14:12:43.237Z,95185.59
2018-08-09T14:15:14.632Z,95185.94
2018-08-09T14:17:43.845Z,95192.85
2018-08-09T14:20:16.273Z,95189.48
2018-08-09T14:22:45.448Z,95189.25
2018-08-09T14:25:14.777Z,95191.45
2018-08-09T14:27:43.982Z,95187.48
2018-08-09T14:30:15.237Z,95183.70
2018-08-09T14:32:45.139Z,95183.96
2018-08-09T14:35:15.889Z,95183.18
2018-08-09T14:37:45.804Z,95185.97
2018-08-09T14:40:15.951Z,95188.94
2018-08-09T14:42:45.412Z,95192.30
2018-08-09T14:45:16.498Z,95192.27
2018-08-09T14:47:45.711Z,95193.08
2018-08-09T14:50:14.837Z,95193.88
2018-08-09T14:52:43.997Z,95199.98
2018-08-09T14:55:13.868Z,95196.84
2018-08-09T14:57:43.357Z,95192.12
2018-08-09T15:00:18.477Z,95188.12
2018-08-09T15:02:48.103Z,95195.83
2018-08-09T15:05:17.717Z,95189.91
2018-08-09T15:07:46.916Z,95191.09
2018-08-09T15:10:17.233Z,95196.02
2018-08-09T15:12:46.674Z,95193.42
2018-08-09T15:15:15.824Z,95190.23
2018-08-09T15:17:44.989Z,95181.36
2018-08-09T15:20:14.773Z,95185.88
2018-08-09T15:22:44.570Z,95192.73
2018-08-09T15:25:13.818Z,95191.55
2018-08-09T15:27:43.019Z,95196.88
2018-08-09T15:30:19.948Z,95189.00
2018-08-09T15:32:49.431Z,95197.06
2018-08-09T15:35:18.670Z,95199.64
2018-08-09T15:37:47.879Z,95205.77
2018-08-09T15:40:17.008Z,95204.57
2018-08-09T15:42:46.323Z,95207.17
2018-08-09T15:45:16.250Z,95201.25
2018-08-09T15:47:45.494Z,95195.92
2018-08-09T15:50:17.789Z,95191.41
2018-08-09T15:52:47.005Z,95196.50
2018-08-09T15:55:17.631Z,95205.19
2018-08-09T15:57:47.149Z,95200.03
2018-08-09T16:00:21.470Z,95193.91
2018-08-09T16:02:50.669Z,95193.69
2018-08-09T16:05:19.837Z,95194.67
2018-08-09T16:07:49.061Z,95191.05
2018-08-09T16:10:18.648Z,95185.31
2018-08-09T16:12:49.096Z,95193.14
2018-08-09T16:15:19.421Z,95188.17
2018-08-09T16:17:49.412Z,95192.29
2018-08-09T16:20:18.572Z,95191.26
2018-08-09T16:22:47.750Z,95199.66
2018-08-09T16:25:18.569Z,95205.34
2018-08-09T16:27:49.008Z,95202.13
2018-08-09T16:30:22.081Z,95208.61
2018-08-09T16:32:51.400Z,95219.19
2018-08-09T16:35:20.725Z,95221.41
2018-08-09T16:37:50.090Z,95232.20
2018-08-09T16:40:25.050Z,95239.95
2018-08-09T16:42:54.546Z,95226.16
2018-08-09T16:45:24.860Z,95223.63
2018-08-09T16:47:55.089Z,95233.59
2018-08-09T16:50:25.431Z,95238.91
2018-08-09T16:52:54.842Z,95243.47
2018-08-09T16:55:25.147Z,95245.53
2018-08-09T16:57:54.321Z,95244.49
2018-08-09T17:00:24.933Z,95238.58
2018-08-09T17:02:55.308Z,95231.33
2018-08-09T17:05:26.334Z,95230.29
2018-08-09T17:07:55.555Z,95232.97
2018-08-09T17:10:25.610Z,95241.06
2018-08-09T17:12:54.793Z,95241.86
2018-08-09T17:15:27.284Z,95234.41
2018-08-09T17:17:57.625Z,95239.59
2018-08-09T17:20:30.519Z,95235.91
2018-08-09T17:23:01.126Z,95229.20
2018-08-09T17:25:30.400Z,95223.70
2018-08-09T17:27:59.626Z,95229.39
2018-08-09T17:30:29.362Z,95237.03
2018-08-09T17:32:59.469Z,95250.55
2018-08-09T17:35:28.690Z,95273.48
2018-08-09T17:37:57.869Z,95323.59
2018-08-09T17:40:30.250Z,95345.78
2018-08-09T17:43:00.230Z,95348.80
2018-08-09T17:45:31.641Z,95373.94
2018-08-09T17:48:01.292Z,95389.27
2018-08-09T17:50:30.496Z,95399.91
2018-08-09T17:53:02.732Z,95417.49
2018-08-09T17:55:32.930Z,95432.70
2018-08-09T17:58:02.104Z,95433.85
2018-08-09T18:00:32.814Z,95452.88
2018-08-09T18:03:01.981Z,95465.27
2018-08-09T18:05:31.149Z,95479.05
2018-08-09T18:08:00.524Z,95494.38
2018-08-09T18:10:32.368Z,95509.82
2018-08-09T18:13:01.550Z,95516.45
2018-08-09T18:15:31.413Z,95538.80
2018-08-09T18:18:01.618Z,95558.83
2018-08-09T18:20:38.525Z,95572.73
2018-08-09T18:23:08.206Z,95595.97
2018-08-09T18:25:37.420Z,95614.53
2018-08-09T18:28:06.804Z,95626.09
2018-08-09T18:30:36.030Z,95636.48
2018-08-09T18:33:05.233Z,95650.75
2018-08-09T18:35:34.521Z,95663.06
2018-08-09T18:38:03.705Z,95663.22
2018-08-09T18:40:32.909Z,95667.31
2018-08-09T18:43:02.101Z,95674.89
2018-08-09T18:45:31.333Z,95679.08
2018-08-09T18:48:00.531Z,95674.43
2018-08-09T18:50:30.576Z,95679.59
2018-08-09T18:52:59.857Z,95687.66
2018-08-09T18:55:29.092Z,95680.59
2018-08-09T18:57:58.318Z,95680.47
2018-08-09T19:00:29.161Z,95671.27
2018-08-09T19:02:58.573Z,95674.69
2018-08-09T19:05:28.040Z,95672.63
2018-08-09T19:07:57.433Z,95676.98
2018-08-09T19:10:29.403Z,95668.98
2018-08-09T19:12:58.801Z,95688.34
2018-08-09T19:15:28.289Z,95690.09
2018-08-09T19:17:57.537Z,95701.50
2018-08-09T19:20:29.535Z,95711.86
2018-08-09T19:22:59.587Z,95722.31
2018-08-09T19:25:28.789Z,95724.22
2018-08-09T19:27:58.275Z,95726.09
2018-08-09T19:30:29.024Z,95723.60
2018-08-09T19:32:58.297Z,95725.77
2018-08-09T19:35:27.541Z,95729.88
2018-08-09T19:37:56.726Z,95721.22
2018-08-09T19:40:28.417Z,95728.05
2018-08-09T19:42:57.681Z,95731.27
2018-08-09T19:45:27.098Z,95755.46
2018-08-09T19:47:56.367Z,95756.58
2018-08-09T19:50:26.077Z,95763.64
2018-08-09T19:52:55.297Z,95771.49
2018-08-09T19:55:25.809Z,95775.29
2018-08-09T19:57:55.155Z,95771.27
2018-08-09T20:00:28.093Z,95777.23
2018-08-09T20:02:57.331Z,95769.23
2018-08-09T20:05:26.480Z,95769.19
2018-08-09T20:07:55.873Z,95766.92
2018-08-09T20:10:25.066Z,95759.03
2018-08-09T20:12:54.265Z,95751.21
2018-08-09T20:15:24.505Z,95746.40
2018-08-09T20:17:53.736Z,95762.95
2018-08-09T20:20:24.417Z,95754.77
2018-08-09T20:22:53.712Z,95757.06
2018-08-09T20:25:22.826Z,95752.62
2018-08-09T20:27:51.997Z,95752.83
2018-08-09T20:30:52.957Z,95751.80
2018-08-09T20:33:22.213Z,95758.37
2018-08-09T20:35:51.423Z,95764.33
2018-08-09T20:38:20.668Z,95786.66
2018-08-09T20:40:49.894Z,95802.64
2018-08-09T20:43:19.125Z,95794.80
2018-08-09T20:45:48.356Z,95805.00
2018-08-09T20:48:17.521Z,95802.11
2018-08-09T20:50:46.718Z,95820.14
2018-08-09T20:53:15.978Z,95811.08
2018-08-09T20:55:45.154Z,95810.15
2018-08-09T20:58:14.322Z,95804.42
2018-08-09T21:00:43.488Z,95803.37
2018-08-09T21:03:12.827Z,95808.82
2018-08-09T21:05:42.010Z,95800.64
2018-08-09T21:08:11.207Z,95811.16
2018-08-09T21:10:40.373Z,95808.98
2018-08-09T21:13:09.603Z,95808.98
2018-08-09T21:15:38.819Z,95803.56
2018-08-09T21:18:08.656Z,95806.28
2018-08-09T21:20:37.844Z,95806.14
2018-08-09T21:23:07.053Z,95806.95
2018-08-09T21:25:36.217Z,95805.67
2018-08-09T21:28:05.434Z,95804.23
2018-08-09T21:30:34.696Z,95801.48
2018-08-09T21:33:04.000Z,95809.60
2018-08-09T21:35:33.181Z,95824.91
2018-08-09T21:38:02.361Z,95824.68
2018-08-09T21:40:31.518Z,95829.88
2018-08-09T21:43:00.684Z,95832.13
2018-08-09T21:45:29.857Z,95842.70
2018-08-09T21:47:59.038Z,95849.13
2018-08-09T21:50:28.221Z,95843.91
2018-08-09T21:52:57.458Z,95848.31
2018-08-09T21:55:26.634Z,95843.09
2018-08-09T21:57:55.856Z,95855.34
2018-08-09T22:01:03.844Z,95862.48
2018-08-09T22:03:36.369Z,95865.94
2018-08-09T22:06:10.886Z,95874.73
2018-08-09T22:08:45.234Z,95884.05
2018-08-09T22:11:19.617Z,95881.12
2018-08-09T22:13:53.990Z,95882.08
2018-08-09T22:16:28.444Z,95888.02
2018-08-09T22:19:02.877Z,95889.02
2018-08-09T22:21:37.297Z,95879.56
2018-08-09T22:24:06.527Z,95869.85
2018-08-09T22:26:35.736Z,95882.11
2018-08-09T22:29:04.909Z,95884.83
2018-08-09T22:31:34.082Z,95884.67
2018-08-09T22:34:03.252Z,95880.75
2018-08-09T22:36:32.401Z,95891.23
2018-08-09T22:39:01.624Z,95903.26
2018-08-09T22:41:30.777Z,95894.83
2018-08-09T22:43:59.981Z,95900.87
2018-08-09T22:46:29.167Z,95891.48
2018-08-09T22:48:58.357Z,95900.20
2018-08-09T22:51:28.691Z,95909.58
2018-08-09T22:53:57.891Z,95916.32
2018-08-09T22:56:27.053Z,95921.30
2018-08-09T22:58:56.246Z,95928.58
2018-08-09T23:01:25.429Z,95938.23
2018-08-09T23:03:54.625Z,95933.52
2018-08-09T23:06:23.827Z,95949.66
2018-08-09T23:08:52.993Z,95950.88
2018-08-09T23:11:22.181Z,95955.89
2018-08-09T23:16:19.602Z,95961.41
2018-08-09T23:18:48.807Z,95963.16
2018-08-09T23:21:18.001Z,95966.51
2018-08-09T23:23:47.190Z,95973.73
2018-08-09T23:26:16.361Z,95978.10
2018-08-09T23:28:45.546Z,95982.70
2018-08-09T23:31:14.708Z,95982.06
2018-08-09T23:33:43.934Z,95985.70
2018-08-09T23:36:13.130Z,95994.60
2018-08-09T23:38:42.289Z,95994.60
2018-08-09T23:41:11.463Z,96008.09
2018-08-09T23:43:40.654Z,96001.56
2018-08-09T23:46:09.852Z,95998.91
2018-08-09T23:48:39.025Z,96004.16
2018-08-09T23:51:08.228Z,95999.66
2018-08-09T23:53:37.426Z,96001.17
2018-08-09T23:56:06.846Z,96005.75
2018-08-09T23:58:36.053Z,96014.33
